Metler Valley, California
Current Conditions -  °F | °C
As of 8:43 PM on Thursday 20 Nov 2014 (Local Time) from KSDB Reporting Station
Light Rain Light Rain  
Wind Chill: 42°   Ceiling: 4400
Heat Index: 48°   Visibility: 9mi
Dew Point: 37°   Wind: 16mph
Humidity: 66%   Direction: 250°WSW
Pressure: 30.02"   Gusts: 31mph
Location:  34.8604°N, 118.583°W
Report Text: KSDB 210443Z AUTO 25014G27KT 9SM -RA FEW010 BKN044 OVC085 09/03 A3002 RMK AO2 PK WND 29027/0434 WSHFT 0426 RAB26 P0001 T00890028 $
Loading
Personal Weather Stations






























Interactive Weather Map New forecast layout! Learn more

10-Day Weather Forecast

Advertisements
Track Severe Weather on mobile